Flight Track Log - Related Links

Times and Time Zones

All times are in EDT time to prevent confusion due to time zone crossing. See the UAL4457 flight status page for this flight to view local times or setup timezone preferences in your user account.


Time Position Orientation Groundspeed Altitude Reporting Facility
EDT Latitude Longitude Course Direction KTS MPH feet Rate Location/Type
Wed 03:12:17 PM 29.9839 -95.3578 352° North 174 200 600  Level Houston Center
Wed 03:13:12 PM 30.0267 -95.3647 352° North 204 235 2,300 2,000 Climbing Houston Center
Wed 03:14:08 PM 30.0778 -95.3394 23° Northeast 224 258 4,300 2,339 Climbing Houston Center
Wed 03:15:10 PM 30.1458 -95.3069 22° Northeast 264 304 6,900 2,371 Climbing Houston Center
Wed 03:16:12 PM 30.2183 -95.2733 22° Northeast 280 322 9,200 1,790 Climbing Houston Center
Wed 03:17:14 PM 30.2981 -95.2353 22° Northeast 306 352 10,600 1,355 Climbing Houston Center
Wed 03:18:16 PM 30.3931 -95.1886 23° Northeast 365 420 12,000 1,790 Climbing Houston Center
Wed 03:19:18 PM 30.5006 -95.1306 25° Northeast 370 426 14,300 1,887 Climbing Houston Center
Wed 03:20:20 PM 30.5931 -95.0722 28° Northeast 376 433 15,900 1,403 Climbing Houston Center
Wed 03:21:22 PM 30.6889 -95.0128 28° Northeast 387 445 17,200 1,248 Climbing Houston Center
Wed 03:22:25 PM 30.8078 -94.9394 28° Northeast 402 463 18,500 1,248 Climbing Houston Center
Wed 03:23:27 PM 30.9089 -94.8758 28° Northeast 412 474 19,800 1,267 Climbing Houston Center
Wed 03:23:55 PM 30.9453 -94.8533 28° Northeast 411 473 20,400 1,295 Climbing Fort Worth Center
Wed 03:24:55 PM 31.0483 -94.7900 28° Northeast 395 455 21,700 1,650 Climbing Fort Worth Center
Wed 03:25:55 PM 31.1492 -94.7239 29° Northeast 400 460 23,700 1,800 Climbing Fort Worth Center
Wed 03:26:55 PM 31.2542 -94.6553 29° Northeast 405 466 25,300 1,600 Climbing Fort Worth Center
Wed 03:27:55 PM 31.3489 -94.5892 31° Northeast 405 466 26,900 1,700 Climbing Fort Worth Center
Wed 03:28:55 PM 31.4453 -94.5231 30° Northeast 405 466 28,700 1,200 Climbing Fort Worth Center
Wed 03:29:55 PM 31.5419 -94.4542 31° Northeast 405 466 29,300 1,100 Climbing Fort Worth Center
Wed 03:30:55 PM 31.6364 -94.3878 31° Northeast 398 458 30,900 850 Climbing Fort Worth Center
Wed 03:31:55 PM 31.7369 -94.3211 29° Northeast 398 458 31,000 50 Climbing Fort Worth Center
Wed 03:32:55 PM 31.8458 -94.2439 31° Northeast 418 481 31,000  Level Fort Worth Center
Wed 03:33:55 PM 31.9606 -94.1642 31° Northeast 449 517 31,000 550 Level Fort Worth Center
Wed 03:34:55 PM 32.0733 -94.0842 31° Northeast 463 533 32,100 1,350 Climbing Fort Worth Center
Wed 03:35:55 PM 32.1819 -94.0064 31° Northeast 463 533 33,700 1,450 Climbing Fort Worth Center
Wed 03:36:55 PM 32.2842 -93.9264 33° Northeast 451 519 35,000 650 Climbing Fort Worth Center
Wed 03:37:55 PM 32.3928 -93.8533 30° Northeast 445 512 35,000  Level Fort Worth Center
Wed 03:38:55 PM 32.5011 -93.7728 32° Northeast 445 512 35,000  Level Fort Worth Center
Wed 03:39:55 PM 32.6136 -93.6942 30° Northeast 445 512 35,000  Level Fort Worth Center
Wed 03:40:55 PM 32.7281 -93.6156 30° Northeast 458 527 35,000  Level Fort Worth Center
Wed 03:41:55 PM 32.8403 -93.5317 32° Northeast 463 533 35,000  Level Fort Worth Center
Wed 03:42:55 PM 32.9547 -93.4525 30° Northeast 463 533 35,000  Level Fort Worth Center
Wed 03:43:55 PM 33.0669 -93.3706 31° Northeast 463 533 35,000  Level Fort Worth Center
Wed 03:44:55 PM 33.1811 -93.2883 31° Northeast 469 540 35,000  Level Fort Worth Center
Wed 03:46:57 PM 33.4222 -93.1150 31° Northeast 465 535 35,000  Level Memphis Center
Wed 03:47:57 PM 33.5369 -93.0314 31° Northeast 465 535 35,000  Level Memphis Center
Wed 03:48:57 PM 33.6514 -92.9500 31° Northeast 465 535 35,000  Level Memphis Center
Wed 03:49:57 PM 33.7614 -92.8658 32° Northeast 470 541 35,000  Level Memphis Center
Wed 03:50:57 PM 33.8781 -92.7817 31° Northeast 470 541 35,000  Level Memphis Center
Wed 03:51:57 PM 33.9922 -92.6997 31° Northeast 475 547 35,000  Level Memphis Center
Wed 03:52:57 PM 34.1022 -92.6122 33° Northeast 475 547 35,000  Level Memphis Center
Wed 03:53:57 PM 34.2167 -92.5275 31° Northeast 475 547 35,000  Level Memphis Center
Wed 03:54:57 PM 34.3306 -92.4422 32° Northeast 475 547 35,000  Level Memphis Center
Wed 03:55:57 PM 34.4469 -92.3519 33° Northeast 481 554 35,000  Level Memphis Center
Wed 03:56:57 PM 34.5631 -92.2664 31° Northeast 481 554 35,000  Level Memphis Center
Wed 03:57:57 PM 34.6750 -92.1803 32° Northeast 481 554 35,000  Level Memphis Center
Wed 03:58:57 PM 34.7725 -92.0586 46° Northeast 481 554 35,000  Level Memphis Center
Wed 03:59:57 PM 34.8703 -91.9339 46° Northeast 490 564 35,000  Level Memphis Center
Wed 04:00:57 PM 34.9678 -91.8117 46° Northeast 495 570 35,000  Level Memphis Center
Wed 04:01:57 PM 35.0628 -91.6864 47° Northeast 500 575 35,000  Level Memphis Center
Wed 04:02:57 PM 35.1581 -91.5636 46° Northeast 500 575 35,000  Level Memphis Center
Wed 04:03:57 PM 35.2572 -91.4353 47° Northeast 500 575 35,000  Level Memphis Center
Wed 04:04:57 PM 35.3564 -91.3092 46° Northeast 500 575 35,000  Level Memphis Center
Wed 04:05:57 PM 35.4447 -91.1956 46° Northeast 500 575 35,000  Level Memphis Center
Wed 04:06:57 PM 35.5394 -91.0714 47° Northeast 500 575 35,000  Level Memphis Center
Wed 04:07:57 PM 35.6464 -90.9292 47° Northeast 500 575 35,000  Level Memphis Center
Wed 04:08:57 PM 35.7344 -90.8019 50° Northeast 498 573 35,000  Level Memphis Center
Wed 04:09:57 PM 35.8350 -90.6744 46° Northeast 498 573 35,000  Level Memphis Center
Wed 04:10:57 PM 35.9311 -90.5417 48° Northeast 498 573 35,000  Level Memphis Center
Wed 04:11:57 PM 36.0294 -90.4133 47° Northeast 504 580 35,000  Level Memphis Center
Wed 04:12:57 PM 36.1272 -90.2850 47° Northeast 509 586 35,000  Level Memphis Center
Wed 04:13:57 PM 36.2231 -90.1536 48° Northeast 509 586 35,000  Level Memphis Center
Wed 04:14:57 PM 36.3208 -90.0247 47° Northeast 509 586 35,000  Level Memphis Center
Wed 04:15:57 PM 36.4161 -89.8953 48° Northeast 509 586 35,000  Level Memphis Center
Wed 04:16:57 PM 36.5158 -89.7631 47° Northeast 509 586 35,000  Level Memphis Center
Wed 04:17:57 PM 36.6131 -89.6281 48° Northeast 514 592 35,000  Level Memphis Center
Wed 04:18:57 PM 36.7122 -89.4925 48° Northeast 519 597 35,000  Level Memphis Center
Wed 04:19:57 PM 36.8092 -89.3592 48° Northeast 519 597 35,000  Level Memphis Center
Wed 04:20:57 PM 36.9078 -89.2206 48° Northeast 519 597 35,000  Level Memphis Center
Wed 04:21:57 PM 36.9942 -89.0997 48° Northeast 514 592 35,000  Level Memphis Center
Wed 04:22:57 PM 37.0928 -88.9656 47° Northeast 514 592 35,000  Level Memphis Center
Wed 04:23:57 PM 37.1892 -88.8258 49° Northeast 514 592 35,000  Level Memphis Center
Wed 04:24:57 PM 37.2894 -88.6883 47° Northeast 514 592 35,000  Level Memphis Center
Wed 04:25:57 PM 37.3853 -88.5533 48° Northeast 514 592 35,000  Level Memphis Center
Wed 04:28:04 PM 37.5828 -88.2611 49° Northeast 537 618 35,000  Level Indianapolis Center
Wed 04:29:06 PM 37.6942 -88.0942 50° Northeast 541 623 35,000 -145 Level Indianapolis Center
Wed 04:30:08 PM 37.7453 -87.9053 71° East 567 652 34,700 -484 Descending Indianapolis Center
Wed 04:31:10 PM 37.7772 -87.7047 79° East 560 644 34,000 -1,016 Descending Indianapolis Center
Wed 04:32:12 PM 37.8081 -87.5131 78° East 557 641 32,600 -1,403 Descending Indianapolis Center
Wed 04:33:14 PM 37.8408 -87.3167 78° East 570 656 31,100 -1,403 Descending Indianapolis Center
Wed 04:34:16 PM 37.8719 -87.1189 79° East 576 663 29,700 -1,548 Descending Indianapolis Center
Wed 04:35:18 PM 37.9081 -86.8856 79° East 571 657 27,900 -1,597 Descending Indianapolis Center
Wed 04:36:20 PM 37.9383 -86.6919 79° East 565 650 26,400 -1,452 Descending Indianapolis Center
Wed 04:37:22 PM 37.9678 -86.4972 79° East 566 651 24,900 -1,694 Descending Indianapolis Center
Wed 04:38:24 PM 37.9964 -86.3047 79° East 559 643 22,900 -2,081 Descending Indianapolis Center
Wed 04:39:26 PM 38.0247 -86.1211 79° East 537 618 20,600 -2,274 Descending Indianapolis Center
Wed 04:40:28 PM 38.0539 -85.9139 80° East 500 575 18,200 -2,064 Descending Indianapolis Center
Wed 04:41:31 PM 38.0803 -85.7453 79° East 488 562 16,300 -1,536 Descending Indianapolis Center
Wed 04:42:33 PM 38.1022 -85.5853 80° East 462 532 15,000 -1,065 Descending Indianapolis Center
Wed 04:43:35 PM 38.0942 -85.4253 94° East 458 527 14,100 -1,306 Descending Indianapolis Center
Wed 04:44:37 PM 38.0833 -85.2672 95° East 450 518 12,300 -1,452 Descending Indianapolis Center
Wed 04:45:39 PM 38.0753 -85.1067 94° East 414 476 11,100 -871 Descending Indianapolis Center
Wed 04:46:41 PM 38.0783 -84.9811 88° East 362 417 10,500 -774 Descending Indianapolis Center
Wed 04:47:43 PM 38.1058 -84.8697 73° East 334 384 9,500 -1,065 Descending Indianapolis Center
Wed 04:48:45 PM 38.1328 -84.7625 72° East 322 371 8,300 -1,210 Descending Indianapolis Center
Wed 04:49:47 PM 38.1731 -84.6481 66° East 321 369 7,000 -1,403 Descending Indianapolis Center
Wed 04:50:49 PM 38.2331 -84.5822 41° Northeast 297 342 5,400 -1,512 Descending Indianapolis Center
Wed 04:51:50 PM 38.2258 -84.4978 96° East 274 315 3,900 -1,073 Descending Indianapolis Center
Wed 04:52:52 PM 38.1853 -84.4400 132° Southeast 241 277 3,200 -339 Descending Indianapolis Center
Wed 04:53:54 PM 38.1408 -84.4875 220° Southwest 218 251 3,200 -194 Level Indianapolis Center
Wed 04:54:56 PM 38.1039 -84.5289 221° Southwest 197 227 2,800 -484 Descending Indianapolis Center
Wed 04:55:58 PM 38.0708 -84.5647 220° Southwest 174 200 2,200 -581 Descending Indianapolis Center

Login

Don't have an account? Register now (free) for customized features, flight alerts, and more!